Time;durP1;ratioP1;P1;durP2;ratioP2;P2;SDS_P1;SDS_P2;PMS_P1;PMS_P2;Temp;Humidity;BMP_temperature;BMP_pressure;BME280_temperature;BME280_humidity;BME280_pressure;Samples;Min_cycle;Max_cycle;Signal;HPM_P1;HPM_P2
2022/10/22 00:02:21;;;;;;;;;;;;;;;13.26;89.22;97709.75;5078809;28;19924;-56
2022/10/22 00:04:50;;;;;;;;;;;;;;;13.28;89.25;97702.03;5069868;28;19925;-57
2022/10/22 00:07:43;;;;;;;;;;;;;;;13.29;89.34;97703.63;5069391;28;19978;-57
2022/10/22 00:10:11;;;;;;;;;;;;;;;13.29;89.03;97701.69;5074351;28;19929;-56
2022/10/22 00:12:41;;;;;;;;;;;;;;;13.30;89.05;97705.22;5070859;28;19925;-57
2022/10/22 00:15:10;;;;;;;;;;;;;;;13.32;89.06;97711.16;5057182;28;19979;-56
2022/10/22 00:17:38;;;;;;;;;;;;;;;13.33;89.13;97707.28;5067180;28;20297;-56
2022/10/22 00:20:08;;;;;;;;;;;;;;;13.34;89.17;97715.13;5073802;28;19930;-56
2022/10/22 00:22:36;;;;;;;;;;;;;;;13.34;89.24;97708.88;5071760;28;19947;-57
2022/10/22 00:25:05;;;;;;;;;;;;;;;13.32;89.44;97705.72;5072504;28;19924;-56
2022/10/22 00:27:33;;;;;;;;;;;;;;;13.32;89.65;97711.16;5071663;28;19931;-56
2022/10/22 00:30:07;;;;;;;;;;;;;;;13.32;89.72;97716.63;5070306;28;19928;-56
2022/10/22 00:32:35;;;;;;;;;;;;;;;13.31;89.75;97720.44;5065896;28;19929;-57
2022/10/22 00:35:03;;;;;;;;;;;;;;;13.32;89.81;97725.59;5077995;28;19928;-57
2022/10/22 00:37:33;;;;;;;;;;;;;;;13.30;90.21;97721.59;5071436;28;19951;-56
2022/10/22 00:40:01;;;;;;;;;;;;;;;13.23;90.64;97729.53;5073161;28;19932;-57
2022/10/22 00:42:29;;;;;;;;;;;;;;;13.29;90.38;97734.44;5072604;28;20377;-57
2022/10/22 00:45:17;;;;;;;;;;;;;;;13.31;90.38;97740.34;5070049;28;20298;-57
2022/10/22 00:47:46;;;;;;;;;;;;;;;13.27;91.15;97735.91;5064176;28;20019;-56
2022/10/22 00:53:11;;;;;;;;;;;;;;;13.31;91.07;97736.81;5072894;28;19925;-56
2022/10/22 00:55:39;;;;;;;;;;;;;;;13.30;91.53;97737.97;5044995;28;19971;-56
2022/10/22 00:58:07;;;;;;;;;;;;;;;13.31;91.32;97736.81;5031559;28;20369;-57
2022/10/22 01:00:34;;;;;;;;;;;;;;;13.28;91.94;97751.16;5029147;28;19925;-56
2022/10/22 01:03:02;;;;;;;;;;;;;;;13.23;92.20;97745.88;5034786;28;19963;-57
2022/10/22 01:05:31;;;;;;;;;;;;;;;13.23;92.46;97740.44;5032347;28;19975;-56
2022/10/22 01:08:01;;;;;;;;;;;;;;;13.22;92.97;97745.09;5033368;28;19929;-56
2022/10/22 01:10:42;;;;;;;;;;;;;;;13.28;92.61;97727.38;5036901;28;19959;-57
2022/10/22 01:13:14;;;;;;;;;;;;;;;13.29;92.76;97722.72;5036672;28;19925;-56
2022/10/22 01:15:43;;;;;;;;;;;;;;;13.28;93.02;97732.84;5024214;28;20731;-56
2022/10/22 01:18:13;;;;;;;;;;;;;;;13.22;93.36;97738.84;5030163;28;19930;-56
2022/10/22 01:20:52;;;;;;;;;;;;;;;13.25;93.34;97727.25;5032850;28;20024;-56
2022/10/22 01:23:28;;;;;;;;;;;;;;;13.21;93.82;97729.00;5031705;28;19925;-57
2022/10/22 01:25:58;;;;;;;;;;;;;;;13.24;93.73;97720.19;5032922;28;19933;-56
2022/10/22 01:28:40;;;;;;;;;;;;;;;13.21;94.21;97727.13;5037380;28;19925;-56
2022/10/22 01:31:33;;;;;;;;;;;;;;;13.23;94.01;97722.13;5025837;28;19925;-57
2022/10/22 01:34:00;;;;;;;;;;;;;;;13.20;94.47;97714.56;5032794;28;19933;-56
2022/10/22 01:36:29;;;;;;;;;;;;;;;13.21;94.58;97709.91;5030194;28;19929;-56
2022/10/22 01:38:57;;;;;;;;;;;;;;;13.22;94.49;97701.44;5032253;28;19929;-57
2022/10/22 01:41:25;;;;;;;;;;;;;;;13.24;94.16;97703.84;5033988;28;20558;-56
2022/10/22 01:43:54;;;;;;;;;;;;;;;13.21;93.82;97699.00;5034432;28;19925;-56
2022/10/22 01:46:22;;;;;;;;;;;;;;;13.27;93.14;97698.53;5024384;28;19933;-56
2022/10/22 01:48:54;;;;;;;;;;;;;;;13.27;93.44;97701.25;5036986;28;20348;-57
2022/10/22 01:51:26;;;;;;;;;;;;;;;13.23;93.12;97696.78;5032381;28;19936;-60
2022/10/22 01:53:56;;;;;;;;;;;;;;;13.22;93.00;97696.00;5035279;28;19956;-56
2022/10/22 01:56:28;;;;;;;;;;;;;;;13.22;92.78;97690.53;5060798;28;19924;-56
2022/10/22 01:58:58;;;;;;;;;;;;;;;13.22;92.68;97689.75;5071294;28;20335;-57
2022/10/22 02:01:26;;;;;;;;;;;;;;;13.12;91.76;97680.00;5048959;28;19924;-56
2022/10/22 02:03:56;;;;;;;;;;;;;;;13.18;92.37;97672.41;5073219;28;20396;-56
2022/10/22 02:06:24;;;;;;;;;;;;;;;13.17;92.37;97676.28;5071211;28;19985;-56
2022/10/22 02:08:54;;;;;;;;;;;;;;;13.17;92.02;97676.28;5071249;28;19924;-56
2022/10/22 02:11:22;;;;;;;;;;;;;;;13.14;91.37;97675.00;5054557;28;19929;-56
2022/10/22 02:13:50;;;;;;;;;;;;;;;13.14;90.68;97671.47;5071102;28;19925;-57
2022/10/22 02:16:21;;;;;;;;;;;;;;;13.15;90.68;97662.16;5063105;28;20289;-57
2022/10/22 02:18:49;;;;;;;;;;;;;;;13.11;90.85;97662.03;5068459;28;19924;-57
2022/10/22 02:21:17;;;;;;;;;;;;;;;13.15;91.06;97659.41;5071331;28;19977;-57
2022/10/22 02:23:45;;;;;;;;;;;;;;;13.11;90.23;97668.28;5070654;28;20400;-57
2022/10/22 02:26:15;;;;;;;;;;;;;;;13.09;89.90;97673.25;5070623;28;19933;-57
2022/10/22 02:28:44;;;;;;;;;;;;;;;13.10;89.73;97677.59;5070973;28;20327;-57
2022/10/22 02:31:15;;;;;;;;;;;;;;;13.06;89.18;97693.03;5057407;28;19932;-57
2022/10/22 02:33:45;;;;;;;;;;;;;;;12.99;88.93;97700.94;5051278;28;19929;-56
2022/10/22 02:36:13;;;;;;;;;;;;;;;12.94;89.56;97697.59;5051130;28;19925;-56
2022/10/22 02:38:41;;;;;;;;;;;;;;;13.00;89.52;97699.81;5048149;28;19925;-57
2022/10/22 02:41:09;;;;;;;;;;;;;;;12.94;89.29;97701.13;5047300;28;19929;-57
2022/10/22 02:43:41;;;;;;;;;;;;;;;12.93;90.15;97710.44;5050535;28;20399;-56
2022/10/22 02:46:09;;;;;;;;;;;;;;;12.98;90.34;97721.16;5038860;28;20383;-56
2022/10/22 02:48:37;;;;;;;;;;;;;;;12.93;90.62;97709.66;5072416;28;19931;-57
2022/10/22 02:51:06;;;;;;;;;;;;;;;12.98;90.79;97712.97;5070137;28;19935;-57
2022/10/22 02:53:34;;;;;;;;;;;;;;;12.99;91.11;97708.31;5069365;28;20015;-56
2022/10/22 02:56:03;;;;;;;;;;;;;;;12.99;91.30;97709.09;5070024;28;19932;-57
2022/10/22 02:58:30;;;;;;;;;;;;;;;13.02;91.25;97707.66;5070741;28;19928;-56
2022/10/22 03:00:58;;;;;;;;;;;;;;;13.02;91.25;97711.19;5065110;28;20280;-56
2022/10/22 03:03:26;;;;;;;;;;;;;;;13.01;91.42;97709.59;5057829;28;19924;-56
2022/10/22 03:06:19;;;;;;;;;;;;;;;13.01;91.46;97712.31;5070336;28;19963;-56
2022/10/22 03:08:48;;;;;;;;;;;;;;;12.92;91.45;97702.59;5069042;28;19924;-57
2022/10/22 03:11:18;;;;;;;;;;;;;;;12.97;91.58;97694.22;5070652;28;19932;-57
2022/10/22 03:13:47;;;;;;;;;;;;;;;12.97;91.84;97695.03;5070278;28;19934;-57
2022/10/22 03:16:14;;;;;;;;;;;;;;;12.98;91.63;97712.19;5063192;28;20317;-57
2022/10/22 03:18:42;;;;;;;;;;;;;;;12.94;91.87;97722.94;5068163;28;19928;-57
2022/10/22 03:21:11;;;;;;;;;;;;;;;12.98;91.88;97715.69;5069943;28;20011;-56
2022/10/22 03:23:39;;;;;;;;;;;;;;;12.98;91.92;97710.25;5070056;28;19924;-56
2022/10/22 03:26:08;;;;;;;;;;;;;;;12.98;91.63;97702.06;5069925;28;20666;-56
2022/10/22 03:28:35;;;;;;;;;;;;;;;12.98;91.70;97702.06;5070203;28;19999;-57
2022/10/22 03:31:06;;;;;;;;;;;;;;;12.92;91.88;97692.50;5065059;28;19924;-56
2022/10/22 03:33:35;;;;;;;;;;;;;;;12.96;91.82;97698.88;5070152;28;19939;-56
2022/10/22 03:36:06;;;;;;;;;;;;;;;12.95;92.02;97701.94;5071238;28;19955;-57
2022/10/22 03:38:34;;;;;;;;;;;;;;;12.95;91.76;97713.66;5069856;28;19978;-57
2022/10/22 03:41:02;;;;;;;;;;;;;;;12.94;92.08;97716.69;5067158;28;19924;-56
2022/10/22 03:43:31;;;;;;;;;;;;;;;12.93;91.95;97731.47;5072902;28;20362;-57
2022/10/22 03:45:59;;;;;;;;;;;;;;;12.92;91.86;97736.13;5052490;28;19925;-56
2022/10/22 03:48:27;;;;;;;;;;;;;;;12.94;91.75;97743.97;5054208;28;19932;-56
2022/10/22 03:50:57;;;;;;;;;;;;;;;12.98;91.69;97764.00;5055614;28;20015;-57
2022/10/22 03:53:25;;;;;;;;;;;;;;;12.99;91.65;97773.75;5074533;28;20024;-56
2022/10/22 03:55:53;;;;;;;;;;;;;;;12.97;91.45;97774.09;5073664;28;19931;-58
2022/10/22 03:58:21;;;;;;;;;;;;;;;12.92;91.75;97773.50;5073925;28;19928;-57
2022/10/22 04:00:50;;;;;;;;;;;;;;;12.90;91.79;97770.31;5069556;28;19931;-61
2022/10/22 04:03:18;;;;;;;;;;;;;;;12.95;91.66;97772.84;5074374;28;20332;-57
2022/10/22 04:05:46;;;;;;;;;;;;;;;12.91;91.49;97769.16;5073558;28;19976;-57
2022/10/22 04:08:16;;;;;;;;;;;;;;;12.95;91.32;97772.84;5069417;28;20344;-57
2022/10/22 04:10:50;;;;;;;;;;;;;;;12.92;91.75;97789.84;5074483;28;19975;-57
2022/10/22 04:13:18;;;;;;;;;;;;;;;12.97;91.77;97798.66;5071054;28;20400;-57
2022/10/22 04:15:46;;;;;;;;;;;;;;;12.96;91.73;97807.97;5061466;28;20301;-56
2022/10/22 04:18:15;;;;;;;;;;;;;;;12.98;91.22;97816.59;5073397;28;20401;-57
2022/10/22 04:20:44;;;;;;;;;;;;;;;12.96;90.99;97810.69;5072878;28;20024;-57
2022/10/22 04:23:11;;;;;;;;;;;;;;;12.94;91.26;97812.91;5055450;28;20263;-57
2022/10/22 04:25:39;;;;;;;;;;;;;;;12.98;91.22;97802.97;5072946;28;19928;-57
2022/10/22 04:28:32;;;;;;;;;;;;;;;12.99;90.23;97807.28;5073383;28;19924;-57
2022/10/22 04:31:00;;;;;;;;;;;;;;;12.99;90.32;97801.81;5058770;28;20008;-57
2022/10/22 04:33:29;;;;;;;;;;;;;;;13.03;90.03;97807.44;5067514;28;20399;-57
2022/10/22 04:35:57;;;;;;;;;;;;;;;12.99;89.47;97815.47;5070725;28;19928;-57
2022/10/22 04:38:25;;;;;;;;;;;;;;;13.00;89.59;97813.56;5071166;28;19932;-57
2022/10/22 04:40:53;;;;;;;;;;;;;;;13.00;89.65;97808.91;5053664;28;20020;-56
2022/10/22 04:43:21;;;;;;;;;;;;;;;13.02;89.65;97816.75;5072129;28;19955;-57
2022/10/22 04:45:49;;;;;;;;;;;;;;;13.02;89.96;97816.75;5062510;28;19924;-56
2022/10/22 04:48:17;;;;;;;;;;;;;;;13.03;89.79;97816.41;5052295;28;19924;-56
2022/10/22 04:50:49;;;;;;;;;;;;;;;13.02;89.18;97817.53;5051016;28;19931;-57
2022/10/22 04:53:17;;;;;;;;;;;;;;;13.03;89.41;97838.22;5052130;28;19924;-57
2022/10/22 04:55:45;;;;;;;;;;;;;;;13.05;89.31;97836.00;5033797;28;19925;-56
2022/10/22 04:58:13;;;;;;;;;;;;;;;12.95;88.97;97839.09;5050535;28;20449;-57
2022/10/22 05:00:41;;;;;;;;;;;;;;;13.00;88.77;97832.66;5046735;28;19939;-57
2022/10/22 05:03:09;;;;;;;;;;;;;;;12.93;88.68;97837.78;5053411;28;19977;-57
2022/10/22 05:05:37;;;;;;;;;;;;;;;12.94;88.64;97831.22;5071612;28;19931;-57
2022/10/22 05:08:06;;;;;;;;;;;;;;;13.00;88.74;97824.47;5071588;28;19928;-57
2022/10/22 05:10:36;;;;;;;;;;;;;;;12.96;89.26;97823.53;5071225;28;19970;-57
2022/10/22 05:13:03;;;;;;;;;;;;;;;12.97;89.50;97822.38;5065068;28;20019;-57
2022/10/22 05:15:33;;;;;;;;;;;;;;;12.91;89.02;97819.06;5061554;28;19963;-57
2022/10/22 05:18:00;;;;;;;;;;;;;;;12.88;88.66;97816.16;5050673;28;19936;-57
2022/10/22 05:20:28;;;;;;;;;;;;;;;12.91;88.65;97827.22;5052270;28;19929;-57
2022/10/22 05:22:56;;;;;;;;;;;;;;;12.96;88.79;97829.78;5052114;28;20366;-57
2022/10/22 05:25:25;;;;;;;;;;;;;;;12.97;88.91;97841.47;5051754;28;19929;-57
2022/10/22 05:30:52;;;;;;;;;;;;;;;12.98;89.21;97834.88;5052528;28;19928;-56
2022/10/22 05:33:21;;;;;;;;;;;;;;;12.91;89.20;97827.22;5071167;28;19924;-57
2022/10/22 05:35:50;;;;;;;;;;;;;;;12.91;89.30;97835.41;5063828;28;19925;-57
2022/10/22 05:38:18;;;;;;;;;;;;;;;12.85;89.48;97839.44;5071040;28;20431;-57
2022/10/22 05:40:47;;;;;;;;;;;;;;;12.81;89.38;97844.75;5069541;28;20051;-57
2022/10/22 05:43:15;;;;;;;;;;;;;;;12.81;89.39;97850.19;5079409;28;19937;-56
2022/10/22 05:45:43;;;;;;;;;;;;;;;12.80;89.28;97856.00;5044373;28;19938;-57
2022/10/22 05:48:11;;;;;;;;;;;;;;;12.79;89.64;97847.00;5041581;28;19939;-57
2022/10/22 05:50:38;;;;;;;;;;;;;;;12.78;89.73;97855.50;5046256;28;19925;-57
2022/10/22 05:53:07;;;;;;;;;;;;;;;12.74;89.54;97868.22;5050491;28;19925;-57
2022/10/22 05:55:35;;;;;;;;;;;;;;;12.72;89.56;97862.25;5049553;28;19932;-57
2022/10/22 05:58:05;;;;;;;;;;;;;;;12.74;89.70;97865.47;5050764;28;19933;-56
2022/10/22 06:00:33;;;;;;;;;;;;;;;12.72;89.67;97859.53;5048484;28;19925;-57
2022/10/22 06:03:01;;;;;;;;;;;;;;;12.71;89.84;97863.38;5067434;28;19928;-57
2022/10/22 06:05:29;;;;;;;;;;;;;;;12.69;89.94;97855.56;5070467;28;20343;-58
2022/10/22 06:07:56;;;;;;;;;;;;;;;12.66;89.87;97863.56;5070970;28;19931;-57
2022/10/22 06:10:24;;;;;;;;;;;;;;;12.67;89.74;97859.72;5070285;28;20011;-56
2022/10/22 06:12:52;;;;;;;;;;;;;;;12.67;89.77;97865.16;5069368;28;19939;-57
2022/10/22 06:15:21;;;;;;;;;;;;;;;12.68;89.77;97883.13;5064777;28;20457;-57
2022/10/22 06:17:49;;;;;;;;;;;;;;;12.73;89.80;97893.84;5067897;28;19925;-57
2022/10/22 06:20:17;;;;;;;;;;;;;;;12.70;90.11;97905.41;5053123;28;20345;-57
2022/10/22 06:22:47;;;;;;;;;;;;;;;12.74;89.94;97907.16;5068768;28;19933;-57
2022/10/22 06:25:15;;;;;;;;;;;;;;;12.64;90.07;97909.44;5086081;28;20361;-57
2022/10/22 06:31:01;;;;;;;;;;;;;;;12.72;90.13;97933.13;5060800;28;19925;-57
2022/10/22 06:33:31;;;;;;;;;;;;;;;12.73;89.87;97934.72;5069943;28;19924;-57
2022/10/22 06:36:04;;;;;;;;;;;;;;;12.74;90.28;97934.44;5070971;28;19924;-58
2022/10/22 06:38:34;;;;;;;;;;;;;;;12.73;90.06;97938.28;5049005;28;19971;-57
2022/10/22 06:41:03;;;;;;;;;;;;;;;12.72;89.84;97941.31;5069457;28;19954;-56
2022/10/22 06:43:31;;;;;;;;;;;;;;;12.75;89.87;97946.13;5069086;28;20354;-58
2022/10/22 06:46:00;;;;;;;;;;;;;;;12.70;90.22;97946.28;5066291;28;20324;-57
2022/10/22 06:48:30;;;;;;;;;;;;;;;12.76;90.14;97951.25;5070387;28;20373;-56
2022/10/22 06:51:01;;;;;;;;;;;;;;;12.82;89.91;97952.66;5070821;28;20023;-57
2022/10/22 06:53:29;;;;;;;;;;;;;;;12.85;90.29;97952.03;5070742;28;19925;-57
2022/10/22 06:55:57;;;;;;;;;;;;;;;12.89;89.79;97952.19;5070196;28;20300;-57
2022/10/22 06:58:24;;;;;;;;;;;;;;;12.75;90.45;97954.31;5070227;28;19932;-56
2022/10/22 07:01:01;;;;;;;;;;;;;;;12.85;90.32;97952.03;5064459;28;20278;-57
2022/10/22 07:03:29;;;;;;;;;;;;;;;12.90;90.15;97961.16;5067894;28;19928;-58
2022/10/22 07:06:22;;;;;;;;;;;;;;;12.97;89.83;97965.00;5068321;28;19952;-57
2022/10/22 07:08:53;;;;;;;;;;;;;;;12.97;89.75;97972.38;5071120;28;19958;-58
2022/10/22 07:11:22;;;;;;;;;;;;;;;12.99;89.60;97981.81;5072489;28;19978;-57
2022/10/22 07:13:50;;;;;;;;;;;;;;;12.87;89.29;97978.97;5073654;28;19931;-57
2022/10/22 07:16:19;;;;;;;;;;;;;;;12.94;89.53;97990.16;5059889;28;20412;-57
2022/10/22 07:18:47;;;;;;;;;;;;;;;12.89;89.74;97989.53;5074576;28;19929;-56
2022/10/22 07:21:15;;;;;;;;;;;;;;;12.94;89.29;97995.63;5074829;28;19928;-57
2022/10/22 07:23:43;;;;;;;;;;;;;;;12.97;88.76;97999.63;5074409;28;19924;-58
2022/10/22 07:26:11;;;;;;;;;;;;;;;12.94;88.90;97992.91;5073326;28;19986;-57
2022/10/22 07:29:04;;;;;;;;;;;;;;;13.01;88.97;98003.31;5073836;28;19932;-57
2022/10/22 07:31:57;;;;;;;;;;;;;;;13.04;89.06;98003.47;5073717;28;20020;-57
2022/10/22 07:34:51;;;;;;;;;;;;;;;13.08;89.26;98012.59;5050083;28;20015;-57
2022/10/22 07:37:20;;;;;;;;;;;;;;;13.10;88.90;98010.38;5070864;28;19924;-57
2022/10/22 07:39:49;;;;;;;;;;;;;;;13.18;88.87;98016.13;5055366;28;19933;-57
2022/10/22 07:42:17;;;;;;;;;;;;;;;13.19;88.51;98012.25;5038613;28;19940;-57
2022/10/22 07:44:45;;;;;;;;;;;;;;;13.23;88.28;98008.59;5037398;28;19924;-57
2022/10/22 07:47:13;;;;;;;;;;;;;;;13.32;88.56;98014.81;5061096;28;19970;-57
2022/10/22 07:49:43;;;;;;;;;;;;;;;13.43;87.49;98015.25;5055780;28;19932;-57
2022/10/22 07:52:13;;;;;;;;;;;;;;;13.45;85.63;98021.19;5074773;28;19930;-57
2022/10/22 07:54:40;;;;;;;;;;;;;;;13.45;85.74;98015.72;5073446;28;20285;-57
2022/10/22 08:00:00;;;;;;;;;;;;;;;13.66;84.20;98034.91;5063276;28;19924;-57
2022/10/22 08:02:38;;;;;;;;;;;;;;;13.65;84.22;98030.56;5066952;28;19970;-57
2022/10/22 08:05:07;;;;;;;;;;;;;;;13.65;84.36;98040.69;5072093;28;19925;-57
2022/10/22 08:07:36;;;;;;;;;;;;;;;13.58;83.36;98042.00;5071904;28;19925;-57
2022/10/22 08:10:04;;;;;;;;;;;;;;;13.52;83.27;98040.56;5075001;28;19975;-57
2022/10/22 08:12:32;;;;;;;;;;;;;;;13.55;82.62;98044.59;5068758;28;19928;-57
2022/10/22 08:15:01;;;;;;;;;;;;;;;13.55;81.69;98048.13;5073899;28;19924;-65
2022/10/22 08:17:29;;;;;;;;;;;;;;;13.50;81.98;98053.75;5054154;28;20377;-57
2022/10/22 08:19:57;;;;;;;;;;;;;;;13.60;83.14;98063.50;5073624;28;19928;-57
2022/10/22 08:22:24;;;;;;;;;;;;;;;13.60;83.70;98066.25;5070902;28;19924;-57
2022/10/22 08:25:19;;;;;;;;;;;;;;;13.65;82.76;98060.59;5072499;28;20411;-62
2022/10/22 08:31:03;;;;;;;;;;;;;;;13.83;82.92;98064.06;5064987;28;19924;-63
2022/10/22 08:33:32;;;;;;;;;;;;;;;13.85;82.56;98065.34;5072444;28;20384;-57
2022/10/22 08:36:00;;;;;;;;;;;;;;;13.86;83.38;98063.41;5074006;28;19925;-57
2022/10/22 08:38:30;;;;;;;;;;;;;;;13.89;83.46;98060.81;5072821;28;19924;-60
2022/10/22 08:41:01;;;;;;;;;;;;;;;13.93;83.28;98071.09;5073294;28;20266;-57
2022/10/22 08:43:51;;;;;;;;;;;;;;;13.99;83.41;98064.28;5071243;28;19924;-57
2022/10/22 08:46:22;;;;;;;;;;;;;;;14.03;82.77;98068.78;5066553;28;19935;-57
2022/10/22 08:48:51;;;;;;;;;;;;;;;13.96;81.83;98062.25;5062924;28;19990;-57
2022/10/22 08:51:25;;;;;;;;;;;;;;;13.85;82.97;98068.06;5055405;28;19991;-57
2022/10/22 08:54:06;;;;;;;;;;;;;;;13.87;82.62;98070.47;5062179;28;19931;-57
2022/10/22 08:56:36;;;;;;;;;;;;;;;13.97;83.00;98067.38;5065787;28;19975;-56
2022/10/22 08:59:06;;;;;;;;;;;;;;;14.01;83.47;98071.03;5070314;28;20157;-57
2022/10/22 09:01:34;;;;;;;;;;;;;;;14.03;83.37;98076.97;5060976;28;19924;-57
2022/10/22 09:04:04;;;;;;;;;;;;;;;14.05;83.71;98077.44;5053952;28;20023;-57
2022/10/22 09:06:33;;;;;;;;;;;;;;;14.10;83.63;98076.44;5066582;28;19931;-57
2022/10/22 09:09:01;;;;;;;;;;;;;;;14.13;83.30;98082.06;5063516;28;19935;-57
2022/10/22 09:11:30;;;;;;;;;;;;;;;14.15;82.24;98081.72;5071244;28;19928;-57
2022/10/22 09:14:00;;;;;;;;;;;;;;;14.13;82.31;98076.59;5052052;28;19928;-57
2022/10/22 09:16:32;;;;;;;;;;;;;;;14.18;81.07;98081.06;5065105;28;19928;-57
2022/10/22 09:19:25;;;;;;;;;;;;;;;14.32;80.54;98083.53;5065243;28;19924;-57
2022/10/22 09:21:55;;;;;;;;;;;;;;;14.41;79.99;98084.28;5072829;28;19932;-57
2022/10/22 09:24:28;;;;;;;;;;;;;;;14.53;78.93;98087.13;5071227;28;20293;-56
2022/10/22 09:26:58;;;;;;;;;;;;;;;14.72;76.50;98083.16;5056287;28;19936;-57
2022/10/22 09:29:30;;;;;;;;;;;;;;;14.77;75.79;98075.53;5044089;28;19924;-57
2022/10/22 09:32:26;;;;;;;;;;;;;;;14.88;75.53;98082.19;5066594;28;19932;-57
2022/10/22 09:34:56;;;;;;;;;;;;;;;15.07;74.44;98087.16;5070821;28;20020;-57
2022/10/22 09:37:25;;;;;;;;;;;;;;;15.05;74.43;98086.69;5065995;28;19924;-56
2022/10/22 09:39:57;;;;;;;;;;;;;;;15.08;74.44;98083.31;5070129;28;19925;-57
2022/10/22 09:42:26;;;;;;;;;;;;;;;15.11;74.41;98082.63;5070249;28;19960;-56
2022/10/22 09:44:56;;;;;;;;;;;;;;;15.13;74.17;98099.53;5071846;28;20263;-57
2022/10/22 09:47:29;;;;;;;;;;;;;;;15.06;73.10;98092.97;5047942;28;20023;-56
2022/10/22 09:50:20;;;;;;;;;;;;;;;14.94;73.97;98099.19;5050184;28;20301;-56
2022/10/22 09:52:55;;;;;;;;;;;;;;;14.90;74.89;98109.19;5048043;28;19990;-56
2022/10/22 09:55:23;;;;;;;;;;;;;;;14.91;74.63;98094.38;5050139;28;20413;-56
2022/10/22 09:57:52;;;;;;;;;;;;;;;14.85;76.00;98098.47;5050693;28;19932;-56
2022/10/22 10:00:23;;;;;;;;;;;;;;;14.80;75.17;98095.94;5042896;28;19933;-56
2022/10/22 10:02:54;;;;;;;;;;;;;;;14.77;75.35;98094.69;5051329;28;20420;-56
2022/10/22 10:05:25;;;;;;;;;;;;;;;14.82;75.82;98093.69;5044967;28;19925;-55
2022/10/22 10:07:53;;;;;;;;;;;;;;;15.04;75.45;98101.53;5050563;28;19956;-56
2022/10/22 10:10:26;;;;;;;;;;;;;;;15.19;73.89;98103.66;5051352;28;19925;-56
2022/10/22 10:12:55;;;;;;;;;;;;;;;15.28;73.42;98097.28;5051169;28;20369;-58
2022/10/22 10:15:27;;;;;;;;;;;;;;;15.45;73.30;98108.06;5049147;28;20282;-57
2022/10/22 10:17:58;;;;;;;;;;;;;;;15.62;73.28;98107.88;5067312;28;20019;-56
2022/10/22 10:20:28;;;;;;;;;;;;;;;15.80;71.57;98099.47;5070155;28;19929;-56
2022/10/22 10:22:58;;;;;;;;;;;;;;;15.96;70.25;98111.34;5067963;28;20428;-57
2022/10/22 10:25:41;;;;;;;;;;;;;;;16.00;69.90;98106.81;5069777;28;20278;-56
2022/10/22 10:28:13;;;;;;;;;;;;;;;16.11;69.69;98104.41;5068540;28;20244;-56
2022/10/22 10:31:10;;;;;;;;;;;;;;;16.12;68.83;98101.31;5056395;28;20401;-56
2022/10/22 10:33:41;;;;;;;;;;;;;;;16.01;68.68;98102.13;5048846;28;19932;-57
2022/10/22 10:36:12;;;;;;;;;;;;;;;15.84;69.81;98103.94;5048153;28;19929;-57
2022/10/22 10:38:47;;;;;;;;;;;;;;;15.77;69.90;98111.13;5048293;28;19925;-57
2022/10/22 10:41:19;;;;;;;;;;;;;;;15.67;70.43;98107.69;5048244;28;19971;-57
2022/10/22 10:43:51;;;;;;;;;;;;;;;15.61;70.48;98109.00;5046998;28;20389;-57
2022/10/22 10:46:22;;;;;;;;;;;;;;;15.60;71.03;98109.31;5047269;28;19924;-58
2022/10/22 10:48:50;;;;;;;;;;;;;;;15.53;70.52;98107.16;5066540;28;20297;-57
2022/10/22 10:51:22;;;;;;;;;;;;;;;15.47;70.74;98114.00;5053560;28;19924;-58
2022/10/22 10:53:55;;;;;;;;;;;;;;;15.49;71.04;98111.69;5052150;28;19931;-58
2022/10/22 10:56:27;;;;;;;;;;;;;;;15.63;70.49;98111.44;5069754;28;19935;-57
2022/10/22 10:58:57;;;;;;;;;;;;;;;15.79;70.71;98097.88;5070124;28;20019;-57
2022/10/22 11:01:27;;;;;;;;;;;;;;;15.98;70.20;98104.41;5063735;28;20616;-57
2022/10/22 11:04:02;;;;;;;;;;;;;;;16.22;69.49;98105.53;5070008;28;19928;-55
2022/10/22 11:06:30;;;;;;;;;;;;;;;16.34;69.34;98111.00;5051438;28;19956;-55
2022/10/22 11:08:59;;;;;;;;;;;;;;;16.46;67.85;98104.72;5053886;28;20637;-55
2022/10/22 11:11:32;;;;;;;;;;;;;;;16.45;66.69;98108.59;5069970;28;19924;-56
2022/10/22 11:14:02;;;;;;;;;;;;;;;16.40;66.31;98114.31;5051915;28;20590;-58
2022/10/22 11:16:32;;;;;;;;;;;;;;;16.45;66.48;98106.66;5052161;28;20337;-57
2022/10/22 11:19:02;;;;;;;;;;;;;;;16.46;66.54;98118.44;5049384;28;19964;-57
2022/10/22 11:21:31;;;;;;;;;;;;;;;16.55;67.13;98115.56;5053220;28;20451;-57
2022/10/22 11:24:02;;;;;;;;;;;;;;;16.75;67.17;98117.38;5050484;28;19932;-57
2022/10/22 11:26:34;;;;;;;;;;;;;;;16.82;66.03;98116.78;5047134;28;19924;-57
2022/10/22 11:29:04;;;;;;;;;;;;;;;16.84;65.89;98114.50;5049699;28;19935;-57
2022/10/22 11:31:36;;;;;;;;;;;;;;;16.72;66.08;98116.16;5056216;28;19975;-57
2022/10/22 11:34:06;;;;;;;;;;;;;;;16.62;66.80;98113.03;5071137;28;19928;-57
2022/10/22 11:37:18;;;;;;;;;;;;;;;16.61;67.38;98117.72;5067700;28;20444;-58
2022/10/22 11:39:47;;;;;;;;;;;;;;;16.53;66.25;98117.84;5066874;28;19996;-57
2022/10/22 11:42:18;;;;;;;;;;;;;;;16.36;66.48;98105.19;5077224;28;19975;-57
2022/10/22 11:44:49;;;;;;;;;;;;;;;16.23;67.55;98102.44;5068852;28;19925;-57
2022/10/22 11:47:25;;;;;;;;;;;;;;;16.14;67.97;98107.28;5063219;28;19928;-57
2022/10/22 11:49:57;;;;;;;;;;;;;;;16.09;68.13;98101.22;5070213;28;20419;-57
2022/10/22 11:52:39;;;;;;;;;;;;;;;16.05;68.50;98103.84;5067670;28;20392;-57
2022/10/22 11:55:22;;;;;;;;;;;;;;;16.01;68.98;98105.66;5068142;28;19932;-59
2022/10/22 11:57:50;;;;;;;;;;;;;;;16.00;69.04;98104.06;5046406;28;20406;-57
2022/10/22 12:00:34;;;;;;;;;;;;;;;16.19;68.87;98107.03;5061813;28;19928;-57
2022/10/22 12:03:04;;;;;;;;;;;;;;;16.33;68.38;98101.19;5071276;28;20396;-57
2022/10/22 12:05:36;;;;;;;;;;;;;;;16.39;68.00;98099.00;5062473;28;19939;-57
2022/10/22 12:08:12;;;;;;;;;;;;;;;16.50;67.22;98102.88;5067486;28;19978;-60
2022/10/22 12:10:50;;;;;;;;;;;;;;;16.57;66.41;98103.13;5069304;28;19960;-57
2022/10/22 12:13:42;;;;;;;;;;;;;;;16.62;65.88;98108.34;5071143;28;20362;-58
2022/10/22 12:16:11;;;;;;;;;;;;;;;16.74;64.98;98100.13;5063305;28;19935;-58
2022/10/22 12:18:42;;;;;;;;;;;;;;;16.60;64.97;98094.16;5072112;28;19925;-57
2022/10/22 12:21:11;;;;;;;;;;;;;;;16.52;65.38;98092.38;5066784;28;19991;-57
2022/10/22 12:23:39;;;;;;;;;;;;;;;16.53;65.10;98096.72;5071080;28;20047;-57
2022/10/22 12:26:06;;;;;;;;;;;;;;;16.59;64.83;98092.59;5070156;28;19955;-57
2022/10/22 12:28:38;;;;;;;;;;;;;;;16.75;65.08;98096.22;5072887;28;19964;-57
2022/10/22 12:31:06;;;;;;;;;;;;;;;16.77;64.81;98090.38;5067124;28;19925;-57
2022/10/22 12:33:34;;;;;;;;;;;;;;;16.94;63.73;98086.59;5034957;28;20384;-57
2022/10/22 12:36:03;;;;;;;;;;;;;;;17.03;63.70;98090.75;5055866;28;20416;-57
2022/10/22 12:38:32;;;;;;;;;;;;;;;17.05;64.15;98084.94;5063635;28;19986;-57
2022/10/22 12:41:00;;;;;;;;;;;;;;;17.07;63.70;98082.63;5070610;28;20285;-57
2022/10/22 12:43:29;;;;;;;;;;;;;;;17.01;62.80;98079.34;5045818;28;20000;-57
2022/10/22 12:45:57;;;;;;;;;;;;;;;16.94;63.66;98075.59;5048511;28;19925;-56
2022/10/22 12:48:28;;;;;;;;;;;;;;;16.82;62.74;98076.41;5052334;28;19979;-57
2022/10/22 12:50:58;;;;;;;;;;;;;;;16.75;62.92;98084.47;5051813;28;20386;-57
2022/10/22 12:53:28;;;;;;;;;;;;;;;16.74;63.52;98082.88;5052783;28;19932;-57
2022/10/22 12:55:57;;;;;;;;;;;;;;;16.65;63.71;98082.97;5067115;28;20279;-58
2022/10/22 12:58:26;;;;;;;;;;;;;;;16.64;63.76;98084.13;5052101;28;19931;-58
2022/10/22 13:00:56;;;;;;;;;;;;;;;16.60;63.29;98080.47;5045000;28;19932;-57
2022/10/22 13:03:26;;;;;;;;;;;;;;;16.63;64.10;98081.72;5052387;28;19929;-57
2022/10/22 13:08:55;;;;;;;;;;;;;;;16.58;64.01;98088.25;5050615;28;20370;-56
2022/10/22 13:11:23;;;;;;;;;;;;;;;16.59;63.21;98081.59;5086339;28;20440;-56
2022/10/22 13:13:51;;;;;;;;;;;;;;;16.75;63.16;98082.50;5047923;28;19947;-56
2022/10/22 13:16:20;;;;;;;;;;;;;;;16.77;62.93;98082.16;5046116;28;19932;-58
2022/10/22 13:18:48;;;;;;;;;;;;;;;16.82;63.36;98079.16;5051702;28;19925;-58
2022/10/22 13:21:27;;;;;;;;;;;;;;;16.81;62.56;98074.03;5049719;28;19936;-57
2022/10/22 13:23:57;;;;;;;;;;;;;;;16.91;62.85;98079.03;5047223;28;20218;-57
2022/10/22 13:26:25;;;;;;;;;;;;;;;16.97;61.63;98080.38;5053379;28;20027;-57